Time,TemperatureF,DewpointF,PressureIn,WindDirection,WindDirectionDegrees,WindSpeedMPH,WindSpeedGustMPH,Humidity,HourlyPrecipIn,Conditions,Clouds,dailyrainin,SoftwareType,DateUTC
2013-05-02 00:00:00,67.1,64.1,29.93,East,90,0.0,0.0,90,0.00,,---,0.00,VWS V14.00,2013-05-02 04:00:00,
2013-05-02 00:01:00,67.1,64.1,29.93,East,90,0.0,0.0,90,0.00,,---,0.00,VWS V14.00,2013-05-02 04:01:00,
2013-05-02 00:05:00,67.1,64.1,29.93,East,90,0.0,0.0,90,0.00,,---,0.00,VWS V14.00,2013-05-02 04:05:00,
2013-05-02 00:06:00,67.1,64.1,29.94,East,90,0.0,0.0,90,0.00,,---,0.00,VWS V14.00,2013-05-02 04:06:00,
2013-05-02 00:10:00,67.1,64.1,29.94,East,90,0.0,0.0,90,0.00,,---,0.00,VWS V14.00,2013-05-02 04:10:00,
2013-05-02 00:11:00,67.1,64.1,29.94,East,90,0.0,0.0,90,0.00,,---,0.00,VWS V14.00,2013-05-02 04:11:00,
2013-05-02 00:15:00,67.1,64.1,29.94,East,90,0.0,0.0,90,0.00,,---,0.00,VWS V14.00,2013-05-02 04:15:00,
2013-05-02 00:16:00,67.1,64.1,29.94,East,90,0.0,0.0,90,0.00,,---,0.00,VWS V14.00,2013-05-02 04:16:00,
2013-05-02 00:20:00,67.1,64.1,29.93,East,90,0.0,0.0,90,0.00,,---,0.00,VWS V14.00,2013-05-02 04:20:00,
2013-05-02 00:21:00,67.1,64.1,29.93,East,90,0.0,0.0,90,0.00,,---,0.00,VWS V14.00,2013-05-02 04:21:00,
2013-05-02 00:25:00,67.2,64.2,29.93,East,90,0.0,0.0,90,0.00,,---,0.00,VWS V14.00,2013-05-02 04:25:00,
2013-05-02 00:26:00,67.2,64.2,29.93,East,90,0.0,0.0,90,0.00,,---,0.00,VWS V14.00,2013-05-02 04:26:00,
2013-05-02 00:30:00,67.2,64.2,29.93,East,90,0.0,0.0,90,0.00,,---,0.00,VWS V14.00,2013-05-02 04:30:00,
2013-05-02 00:31:00,67.2,64.2,29.93,East,90,0.0,0.0,90,0.00,,---,0.00,VWS V14.00,2013-05-02 04:31:00,
2013-05-02 00:35:00,67.3,64.3,29.93,East,90,0.0,0.0,90,0.00,,---,0.00,VWS V14.00,2013-05-02 04:35:00,
2013-05-02 00:36:00,67.3,64.3,29.93,East,90,0.0,0.0,90,0.00,,---,0.00,VWS V14.00,2013-05-02 04:36:00,
2013-05-02 00:40:00,67.3,64.3,29.93,East,90,0.0,0.0,90,0.00,,---,0.00,VWS V14.00,2013-05-02 04:40:00,
2013-05-02 00:41:00,67.3,64.3,29.92,East,90,0.0,0.0,90,0.00,,---,0.00,VWS V14.00,2013-05-02 04:41:00,
2013-05-02 00:45:00,67.4,64.4,29.92,East,90,0.0,0.0,90,0.00,,---,0.00,VWS V14.00,2013-05-02 04:45:00,
2013-05-02 00:46:00,67.4,64.4,29.92,East,90,0.0,0.0,90,0.00,,---,0.00,VWS V14.00,2013-05-02 04:46:00,
2013-05-02 00:50:00,67.3,64.3,29.92,East,90,0.0,0.0,90,0.00,,---,0.00,VWS V14.00,2013-05-02 04:50:00,
2013-05-02 00:51:00,67.3,64.3,29.92,East,90,0.0,0.0,90,0.00,,---,0.00,VWS V14.00,2013-05-02 04:51:00,
2013-05-02 00:55:00,67.2,64.2,29.92,East,90,0.0,0.0,90,0.00,,---,0.00,VWS V14.00,2013-05-02 04:55:00,
2013-05-02 00:56:00,67.2,64.2,29.92,East,90,0.0,0.0,90,0.00,,---,0.00,VWS V14.00,2013-05-02 04:56:00,
2013-05-02 01:01:00,67.2,64.2,29.91,East,90,0.0,0.0,90,0.00,,---,0.00,VWS V14.00,2013-05-02 05:01:00,
2013-05-02 01:05:00,67.2,64.2,29.91,East,90,0.0,0.0,90,0.00,,---,0.00,VWS V14.00,2013-05-02 05:05:00,
2013-05-02 01:06:00,67.1,64.1,29.91,East,90,0.0,0.0,90,0.00,,---,0.00,VWS V14.00,2013-05-02 05:06:00,
2013-05-02 01:10:00,67.1,64.1,29.91,East,90,0.0,0.0,90,0.00,,---,0.00,VWS V14.00,2013-05-02 05:10:00,
2013-05-02 01:11:00,67.1,64.1,29.91,East,90,0.0,0.0,90,0.00,,---,0.00,VWS V14.00,2013-05-02 05:11:00,
2013-05-02 01:15:00,67.1,64.1,29.91,East,90,0.0,0.0,90,0.00,,---,0.00,VWS V14.00,2013-05-02 05:15:00,
2013-05-02 01:16:00,67.1,64.1,29.91,East,90,0.0,0.0,90,0.00,,---,0.00,VWS V14.00,2013-05-02 05:16:00,
2013-05-02 01:20:00,67.1,64.1,29.90,East,90,0.0,0.0,90,0.00,,---,0.00,VWS V14.00,2013-05-02 05:20:00,
2013-05-02 01:21:00,67.1,64.1,29.91,East,90,0.0,0.0,90,0.00,,---,0.00,VWS V14.00,2013-05-02 05:21:00,
2013-05-02 01:25:00,67.1,64.1,29.91,East,90,0.0,0.0,90,0.00,,---,0.00,VWS V14.00,2013-05-02 05:25:00,
2013-05-02 01:26:00,67.1,64.1,29.91,East,90,0.0,0.0,90,0.00,,---,0.00,VWS V14.00,2013-05-02 05:26:00,
2013-05-02 01:30:00,67.1,64.1,29.91,East,90,0.0,0.0,90,0.00,,---,0.00,VWS V14.00,2013-05-02 05:30:00,
2013-05-02 01:31:00,67.0,64.0,29.91,East,90,0.0,0.0,90,0.00,,---,0.00,VWS V14.00,2013-05-02 05:31:00,
2013-05-02 01:35:00,67.1,64.1,29.91,East,90,0.0,0.0,90,0.00,,---,0.00,VWS V14.00,2013-05-02 05:35:00,
2013-05-02 01:36:00,67.1,64.1,29.91,East,90,0.0,0.0,90,0.00,,---,0.00,VWS V14.00,2013-05-02 05:36:00,
2013-05-02 01:40:00,67.1,64.1,29.91,East,90,0.0,0.0,90,0.00,,---,0.00,VWS V14.00,2013-05-02 05:40:00,
2013-05-02 01:41:00,67.1,64.1,29.91,East,90,0.0,0.0,90,0.00,,---,0.00,VWS V14.00,2013-05-02 05:41:00,
2013-05-02 01:45:00,67.2,64.2,29.91,East,90,0.0,0.0,90,0.00,,---,0.00,VWS V14.00,2013-05-02 05:45:00,
2013-05-02 01:46:00,67.1,64.1,29.91,East,90,0.0,0.0,90,0.00,,---,0.00,VWS V14.00,2013-05-02 05:46:00,
2013-05-02 01:50:00,67.2,64.2,29.90,East,90,0.0,0.0,90,0.00,,---,0.00,VWS V14.00,2013-05-02 05:50:00,
2013-05-02 01:51:00,67.1,64.1,29.90,East,90,0.0,0.0,90,0.00,,---,0.00,VWS V14.00,2013-05-02 05:51:00,
2013-05-02 01:55:00,67.1,64.1,29.90,East,90,0.0,0.0,90,0.00,,---,0.00,VWS V14.00,2013-05-02 05:55:00,
2013-05-02 01:56:00,67.1,64.1,29.90,East,90,0.0,0.0,90,0.00,,---,0.00,VWS V14.00,2013-05-02 05:56:00,
2013-05-02 02:00:00,67.1,64.1,29.90,East,90,0.0,0.0,90,0.00,,---,0.00,VWS V14.00,2013-05-02 06:00:00,
2013-05-02 02:01:00,67.0,64.0,29.90,East,90,0.0,0.0,90,0.00,,---,0.00,VWS V14.00,2013-05-02 06:01:00,
2013-05-02 02:05:00,67.0,64.0,29.90,East,90,0.0,0.0,90,0.00,,---,0.00,VWS V14.00,2013-05-02 06:05:00,
2013-05-02 02:06:00,67.0,64.0,29.90,East,90,0.0,0.0,90,0.00,,---,0.00,VWS V14.00,2013-05-02 06:06:00,
2013-05-02 02:10:00,67.0,64.0,29.90,East,90,0.0,0.0,90,0.00,,---,0.00,VWS V14.00,2013-05-02 06:10:00,
2013-05-02 02:11:00,66.9,63.9,29.90,East,90,0.0,0.0,90,0.00,,---,0.00,VWS V14.00,2013-05-02 06:11:00,
2013-05-02 02:15:00,66.9,63.9,29.90,East,90,0.0,0.0,90,0.00,,---,0.00,VWS V14.00,2013-05-02 06:15:00,
2013-05-02 02:16:00,66.8,63.8,29.90,East,90,0.0,0.0,90,0.00,,---,0.00,VWS V14.00,2013-05-02 06:16:00,
2013-05-02 02:20:00,66.8,63.8,29.90,East,90,0.0,0.0,90,0.00,,---,0.00,VWS V14.00,2013-05-02 06:20:00,
2013-05-02 02:21:00,66.7,63.7,29.90,East,90,0.0,0.0,90,0.00,,---,0.00,VWS V14.00,2013-05-02 06:21:00,
2013-05-02 02:25:00,66.7,63.7,29.89,East,90,0.0,0.0,90,0.00,,---,0.00,VWS V14.00,2013-05-02 06:25:00,
2013-05-02 02:26:00,66.7,63.7,29.90,East,90,0.0,0.0,90,0.00,,---,0.00,VWS V14.00,2013-05-02 06:26:00,
2013-05-02 02:30:00,66.5,63.5,29.89,East,90,0.0,0.0,90,0.00,,---,0.00,VWS V14.00,2013-05-02 06:30:00,
2013-05-02 02:31:00,66.5,63.5,29.89,East,90,0.0,0.0,90,0.00,,---,0.00,VWS V14.00,2013-05-02 06:31:00,
2013-05-02 02:35:00,66.4,63.4,29.89,East,90,0.0,0.0,90,0.00,,---,0.00,VWS V14.00,2013-05-02 06:35:00,
2013-05-02 02:36:00,66.4,63.4,29.90,East,90,0.0,0.0,90,0.00,,---,0.00,VWS V14.00,2013-05-02 06:36:00,
2013-05-02 02:40:00,66.3,63.3,29.89,East,90,0.0,0.0,90,0.00,,---,0.00,VWS V14.00,2013-05-02 06:40:00,
2013-05-02 02:41:00,66.3,63.3,29.89,East,90,0.0,0.0,90,0.00,,---,0.00,VWS V14.00,2013-05-02 06:41:00,
2013-05-02 02:45:00,66.3,63.3,29.89,East,90,0.0,0.0,90,0.00,,---,0.00,VWS V14.00,2013-05-02 06:45:00,
2013-05-02 02:46:00,66.3,63.3,29.89,East,90,0.0,0.0,90,0.00,,---,0.00,VWS V14.00,2013-05-02 06:46:00,
2013-05-02 02:50:00,66.2,63.2,29.89,East,90,0.0,0.0,90,0.00,,---,0.00,VWS V14.00,2013-05-02 06:50:00,
2013-05-02 02:51:00,66.2,63.2,29.89,East,90,0.0,0.0,90,0.00,,---,0.00,VWS V14.00,2013-05-02 06:51:00,
2013-05-02 02:55:00,66.1,63.1,29.89,East,90,0.0,0.0,90,0.00,,---,0.00,VWS V14.00,2013-05-02 06:55:00,
2013-05-02 02:56:00,66.1,63.1,29.89,East,90,0.0,0.0,90,0.00,,---,0.00,VWS V14.00,2013-05-02 06:56:00,
2013-05-02 03:00:00,66.0,63.0,29.89,East,90,0.0,0.0,90,0.00,,---,0.00,VWS V14.00,2013-05-02 07:00:00,
2013-05-02 03:01:00,66.0,63.0,29.89,East,90,0.0,0.0,90,0.00,,---,0.00,VWS V14.00,2013-05-02 07:01:00,
2013-05-02 03:05:00,65.9,62.9,29.88,East,90,0.0,0.0,90,0.00,,---,0.00,VWS V14.00,2013-05-02 07:05:00,
2013-05-02 03:06:00,65.9,62.9,29.88,East,90,0.0,0.0,90,0.00,,---,0.00,VWS V14.00,2013-05-02 07:06:00,
2013-05-02 03:10:00,66.1,63.1,29.88,East,90,0.0,0.0,90,0.00,,---,0.00,VWS V14.00,2013-05-02 07:10:00,
2013-05-02 03:11:00,66.1,63.1,29.88,East,90,0.0,0.0,90,0.00,,---,0.00,VWS V14.00,2013-05-02 07:11:00,
2013-05-02 03:15:00,66.1,63.1,29.88,East,90,0.0,0.0,90,0.00,,---,0.00,VWS V14.00,2013-05-02 07:15:00,
2013-05-02 03:16:00,66.1,63.1,29.88,East,90,0.0,0.0,90,0.00,,---,0.00,VWS V14.00,2013-05-02 07:16:00,
2013-05-02 03:20:00,66.1,63.1,29.88,East,90,0.0,0.0,90,0.00,,---,0.00,VWS V14.00,2013-05-02 07:20:00,
2013-05-02 03:21:00,66.1,63.1,29.88,East,90,0.0,0.0,90,0.00,,---,0.00,VWS V14.00,2013-05-02 07:21:00,
2013-05-02 03:25:00,66.1,63.1,29.88,East,90,0.0,0.0,90,0.00,,---,0.00,VWS V14.00,2013-05-02 07:25:00,
2013-05-02 03:26:00,66.0,63.0,29.88,East,90,0.0,0.0,90,0.00,,---,0.00,VWS V14.00,2013-05-02 07:26:00,
2013-05-02 03:30:00,66.0,63.0,29.88,East,90,0.0,0.0,90,0.00,,---,0.00,VWS V14.00,2013-05-02 07:30:00,
2013-05-02 03:31:00,66.0,63.0,29.88,East,90,0.0,0.0,90,0.00,,---,0.00,VWS V14.00,2013-05-02 07:31:00,
2013-05-02 03:35:00,66.0,63.0,29.88,East,90,0.0,0.0,90,0.00,,---,0.00,VWS V14.00,2013-05-02 07:35:00,
2013-05-02 03:36:00,66.0,63.0,29.88,East,90,0.0,0.0,90,0.00,,---,0.00,VWS V14.00,2013-05-02 07:36:00,
2013-05-02 03:40:00,66.0,63.0,29.88,East,90,0.0,0.0,90,0.00,,---,0.00,VWS V14.00,2013-05-02 07:40:00,
2013-05-02 03:41:00,66.0,63.0,29.88,East,90,0.0,0.0,90,0.00,,---,0.00,VWS V14.00,2013-05-02 07:41:00,
2013-05-02 03:45:00,66.1,63.4,29.88,East,90,0.0,0.0,91,0.00,,---,0.00,VWS V14.00,2013-05-02 07:45:00,
2013-05-02 03:46:00,66.1,63.4,29.88,East,90,0.0,0.0,91,0.00,,---,0.00,VWS V14.00,2013-05-02 07:46:00,
2013-05-02 03:50:00,66.1,63.4,29.88,East,90,0.0,0.0,91,0.00,,---,0.00,VWS V14.00,2013-05-02 07:50:00,
2013-05-02 03:51:00,66.1,63.4,29.88,East,90,0.0,0.0,91,0.00,,---,0.00,VWS V14.00,2013-05-02 07:51:00,
2013-05-02 03:55:00,66.1,63.4,29.88,East,90,0.0,0.0,91,0.00,,---,0.00,VWS V14.00,2013-05-02 07:55:00,
2013-05-02 03:56:00,66.1,63.4,29.88,East,90,0.0,0.0,91,0.00,,---,0.00,VWS V14.00,2013-05-02 07:56:00,
2013-05-02 04:00:00,66.0,63.0,29.88,East,90,0.0,0.0,90,0.00,,---,0.00,VWS V14.00,2013-05-02 08:00:00,
2013-05-02 04:01:00,66.0,63.0,29.88,East,90,0.0,0.0,90,0.00,,---,0.00,VWS V14.00,2013-05-02 08:01:00,
2013-05-02 04:05:00,65.9,62.9,29.87,East,90,0.0,0.0,90,0.00,,---,0.00,VWS V14.00,2013-05-02 08:05:00,
2013-05-02 04:06:00,65.9,62.9,29.87,East,90,0.0,0.0,90,0.00,,---,0.00,VWS V14.00,2013-05-02 08:06:00,
2013-05-02 04:10:00,66.0,63.3,29.87,East,90,0.0,0.0,91,0.00,,---,0.00,VWS V14.00,2013-05-02 08:10:00,
2013-05-02 04:11:00,66.0,63.3,29.87,East,90,0.0,0.0,91,0.00,,---,0.00,VWS V14.00,2013-05-02 08:11:00,
2013-05-02 04:15:00,66.1,63.4,29.87,East,90,0.0,0.0,91,0.00,,---,0.00,VWS V14.00,2013-05-02 08:15:00,
2013-05-02 04:16:00,66.1,63.4,29.87,East,90,0.0,0.0,91,0.00,,---,0.00,VWS V14.00,2013-05-02 08:16:00,
2013-05-02 04:20:00,66.1,63.4,29.87,East,90,0.0,0.0,91,0.00,,---,0.00,VWS V14.00,2013-05-02 08:20:00,
2013-05-02 04:21:00,66.1,63.4,29.86,East,90,0.0,0.0,91,0.00,,---,0.00,VWS V14.00,2013-05-02 08:21:00,
2013-05-02 04:25:00,66.1,63.4,29.87,East,90,0.0,0.0,91,0.00,,---,0.00,VWS V14.00,2013-05-02 08:25:00,
2013-05-02 04:26:00,66.1,63.4,29.87,East,90,0.0,0.0,91,0.00,,---,0.00,VWS V14.00,2013-05-02 08:26:00,
2013-05-02 04:30:00,66.1,63.4,29.87,East,90,0.0,0.0,91,0.00,,---,0.00,VWS V14.00,2013-05-02 08:30:00,
2013-05-02 04:31:00,66.1,63.4,29.87,East,90,0.0,0.0,91,0.00,,---,0.00,VWS V14.00,2013-05-02 08:31:00,
2013-05-02 04:35:00,66.1,63.4,29.87,East,90,0.0,0.0,91,0.00,,---,0.00,VWS V14.00,2013-05-02 08:35:00,
2013-05-02 04:36:00,66.1,63.4,29.87,East,90,0.0,0.0,91,0.00,,---,0.00,VWS V14.00,2013-05-02 08:36:00,
2013-05-02 04:40:00,66.0,63.3,29.87,East,90,0.0,0.0,91,0.00,,---,0.00,VWS V14.00,2013-05-02 08:40:00,
2013-05-02 04:41:00,66.0,63.3,29.87,East,90,0.0,0.0,91,0.00,,---,0.00,VWS V14.00,2013-05-02 08:41:00,
2013-05-02 04:45:00,65.9,63.2,29.86,East,90,0.0,0.0,91,0.00,,---,0.00,VWS V14.00,2013-05-02 08:45:00,
2013-05-02 04:46:00,65.9,63.2,29.86,East,90,0.0,0.0,91,0.00,,---,0.00,VWS V14.00,2013-05-02 08:46:00,
2013-05-02 04:50:00,65.9,63.2,29.87,East,90,0.0,0.0,91,0.00,,---,0.00,VWS V14.00,2013-05-02 08:50:00,
2013-05-02 04:51:00,65.9,63.2,29.87,East,90,0.0,0.0,91,0.00,,---,0.00,VWS V14.00,2013-05-02 08:51:00,
2013-05-02 04:55:00,65.9,63.2,29.87,East,90,0.0,0.0,91,0.00,,---,0.00,VWS V14.00,2013-05-02 08:55:00,
2013-05-02 04:56:00,65.9,63.2,29.87,East,90,0.0,0.0,91,0.00,,---,0.00,VWS V14.00,2013-05-02 08:56:00,
2013-05-02 05:00:00,65.9,63.2,29.87,East,90,0.0,0.0,91,0.00,,---,0.00,VWS V14.00,2013-05-02 09:00:00,
2013-05-02 05:01:00,65.9,63.2,29.87,East,90,0.0,0.0,91,0.00,,---,0.00,VWS V14.00,2013-05-02 09:01:00,
2013-05-02 05:05:00,66.0,63.3,29.87,East,90,0.0,0.0,91,0.00,,---,0.00,VWS V14.00,2013-05-02 09:05:00,
2013-05-02 05:06:00,65.9,63.2,29.87,East,90,0.0,0.0,91,0.00,,---,0.00,VWS V14.00,2013-05-02 09:06:00,
2013-05-02 05:10:00,65.9,63.2,29.87,East,90,0.0,0.0,91,0.00,,---,0.00,VWS V14.00,2013-05-02 09:10:00,
2013-05-02 05:11:00,65.9,63.2,29.87,East,90,0.0,0.0,91,0.00,,---,0.00,VWS V14.00,2013-05-02 09:11:00,
2013-05-02 05:15:00,65.9,63.2,29.88,East,90,0.0,0.0,91,0.00,,---,0.00,VWS V14.00,2013-05-02 09:15:00,
2013-05-02 05:16:00,65.9,63.2,29.88,East,90,0.0,0.0,91,0.00,,---,0.00,VWS V14.00,2013-05-02 09:16:00,
2013-05-02 05:20:00,65.9,63.2,29.88,East,90,0.0,0.0,91,0.00,,---,0.00,VWS V14.00,2013-05-02 09:20:00,
2013-05-02 05:21:00,65.9,63.2,29.88,East,90,0.0,0.0,91,0.00,,---,0.00,VWS V14.00,2013-05-02 09:21:00,
2013-05-02 05:25:00,65.9,63.2,29.88,East,90,0.0,0.0,91,0.00,,---,0.00,VWS V14.00,2013-05-02 09:25:00,
2013-05-02 05:26:00,65.9,63.2,29.88,East,90,0.0,0.0,91,0.00,,---,0.00,VWS V14.00,2013-05-02 09:26:00,
2013-05-02 05:30:00,65.9,63.2,29.88,East,90,0.0,0.0,91,0.00,,---,0.00,VWS V14.00,2013-05-02 09:30:00,
2013-05-02 05:31:00,65.9,63.2,29.88,East,90,0.0,0.0,91,0.00,,---,0.00,VWS V14.00,2013-05-02 09:31:00,
2013-05-02 05:35:00,65.9,63.2,29.88,East,90,0.0,0.0,91,0.00,,---,0.00,VWS V14.00,2013-05-02 09:35:00,
2013-05-02 05:36:00,65.9,63.2,29.88,East,90,0.0,0.0,91,0.00,,---,0.00,VWS V14.00,2013-05-02 09:36:00,
2013-05-02 05:40:00,65.9,63.2,29.88,East,90,0.0,0.0,91,0.00,,---,0.00,VWS V14.00,2013-05-02 09:40:00,
2013-05-02 05:41:00,65.9,63.2,29.88,East,90,0.0,0.0,91,0.00,,---,0.00,VWS V14.00,2013-05-02 09:41:00,
2013-05-02 05:45:00,66.0,63.3,29.88,East,90,0.0,0.0,91,0.00,,---,0.00,VWS V14.00,2013-05-02 09:45:00,
2013-05-02 05:46:00,66.0,63.3,29.87,East,90,0.0,0.0,91,0.00,,---,0.00,VWS V14.00,2013-05-02 09:46:00,
2013-05-02 05:50:00,66.0,63.3,29.88,East,90,0.0,0.0,91,0.00,,---,0.00,VWS V14.00,2013-05-02 09:50:00,
2013-05-02 05:51:00,66.0,63.3,29.88,East,90,0.0,0.0,91,0.00,,---,0.00,VWS V14.00,2013-05-02 09:51:00,
2013-05-02 05:55:00,66.1,63.4,29.88,East,90,0.0,0.0,91,0.00,,---,0.00,VWS V14.00,2013-05-02 09:55:00,
2013-05-02 05:56:00,66.1,63.4,29.88,East,90,0.0,0.0,91,0.00,,---,0.00,VWS V14.00,2013-05-02 09:56:00,
2013-05-02 06:00:00,66.1,63.4,29.87,East,90,0.0,0.0,91,0.00,,---,0.00,VWS V14.00,2013-05-02 10:00:00,
2013-05-02 06:01:00,66.1,63.4,29.87,East,90,0.0,0.0,91,0.00,,---,0.00,VWS V14.00,2013-05-02 10:01:00,
2013-05-02 06:05:00,66.1,63.4,29.87,East,90,0.0,0.0,91,0.00,,---,0.00,VWS V14.00,2013-05-02 10:05:00,
2013-05-02 06:06:00,66.1,63.4,29.87,East,90,0.0,0.0,91,0.00,,---,0.00,VWS V14.00,2013-05-02 10:06:00,
2013-05-02 06:10:00,66.1,63.4,29.87,East,90,0.0,0.0,91,0.00,,---,0.00,VWS V14.00,2013-05-02 10:10:00,
2013-05-02 06:15:00,66.1,63.4,29.88,East,90,0.0,0.0,91,0.00,,---,0.00,VWS V14.00,2013-05-02 10:15:00,
2013-05-02 06:16:00,66.1,63.4,29.88,East,90,0.0,0.0,91,0.00,,---,0.00,VWS V14.00,2013-05-02 10:16:00,
2013-05-02 06:20:00,66.1,63.4,29.88,East,90,0.0,0.0,91,0.00,,---,0.00,VWS V14.00,2013-05-02 10:20:00,
2013-05-02 06:21:00,66.1,63.4,29.88,East,90,0.0,0.0,91,0.00,,---,0.00,VWS V14.00,2013-05-02 10:21:00,
2013-05-02 06:25:00,66.2,63.5,29.87,East,90,0.0,0.0,91,0.00,,---,0.00,VWS V14.00,2013-05-02 10:25:00,
2013-05-02 06:30:00,66.2,63.5,29.87,East,90,0.0,0.0,91,0.00,,---,0.00,VWS V14.00,2013-05-02 10:30:00,
2013-05-02 06:35:00,66.2,63.5,29.87,East,90,0.0,0.0,91,0.00,,---,0.00,VWS V14.00,2013-05-02 10:35:00,
2013-05-02 06:40:00,66.2,63.5,29.87,East,90,0.0,0.0,91,0.00,,---,0.00,VWS V14.00,2013-05-02 10:40:00,
2013-05-02 06:45:00,66.2,63.5,29.87,East,90,0.0,0.0,91,0.00,,---,0.00,VWS V14.00,2013-05-02 10:45:00,
2013-05-02 06:50:00,66.3,63.6,29.87,East,90,0.0,0.0,91,0.00,,---,0.00,VWS V14.00,2013-05-02 10:50:00,
2013-05-02 06:55:00,66.3,63.6,29.87,East,90,0.0,0.0,91,0.00,,---,0.00,VWS V14.00,2013-05-02 10:55:00,
2013-05-02 07:00:00,66.3,63.6,29.87,East,90,0.0,0.0,91,0.00,,---,0.00,VWS V14.00,2013-05-02 11:00:00,
2013-05-02 07:05:00,66.4,64.0,29.87,East,90,0.0,0.0,92,0.00,,---,0.00,VWS V14.00,2013-05-02 11:05:00,
2013-05-02 07:10:00,66.5,64.1,29.87,East,90,0.0,0.0,92,0.00,,---,0.00,VWS V14.00,2013-05-02 11:10:00,
2013-05-02 07:15:00,66.5,64.1,29.87,East,90,0.0,0.0,92,0.00,,---,0.00,VWS V14.00,2013-05-02 11:15:00,
2013-05-02 07:20:00,66.5,64.1,29.88,East,90,0.0,0.0,92,0.00,,---,0.00,VWS V14.00,2013-05-02 11:20:00,
2013-05-02 07:25:00,66.6,64.2,29.87,East,90,0.0,0.0,92,0.00,,---,0.00,VWS V14.00,2013-05-02 11:25:00,
2013-05-02 07:30:00,66.6,64.2,29.88,East,90,0.0,0.0,92,0.00,,---,0.00,VWS V14.00,2013-05-02 11:30:00,
2013-05-02 07:35:00,66.7,64.3,29.89,East,90,0.0,0.0,92,0.00,,---,0.00,VWS V14.00,2013-05-02 11:35:00,
2013-05-02 07:40:00,66.8,64.4,29.88,East,90,0.0,0.0,92,0.00,,---,0.00,VWS V14.00,2013-05-02 11:40:00,
2013-05-02 07:45:00,66.9,64.5,29.88,East,90,0.0,0.0,92,0.00,,---,0.00,VWS V14.00,2013-05-02 11:45:00,
2013-05-02 07:50:00,66.9,64.5,29.88,East,90,0.0,0.0,92,0.00,,---,0.00,VWS V14.00,2013-05-02 11:50:00,
2013-05-02 07:55:00,67.0,64.6,29.88,East,90,0.0,0.0,92,0.00,,---,0.00,VWS V14.00,2013-05-02 11:55:00,
2013-05-02 08:00:00,67.1,64.7,29.89,East,90,0.0,0.0,92,0.00,,---,0.00,VWS V14.00,2013-05-02 12:00:00,
2013-05-02 08:05:00,67.2,64.8,29.89,East,90,0.0,0.0,92,0.00,,---,0.00,VWS V14.00,2013-05-02 12:05:00,
2013-05-02 08:10:00,67.3,64.9,29.89,East,90,0.0,0.0,92,0.00,,---,0.00,VWS V14.00,2013-05-02 12:10:00,
2013-05-02 08:15:00,67.4,65.0,29.89,East,90,0.0,0.0,92,0.00,,---,0.00,VWS V14.00,2013-05-02 12:15:00,
2013-05-02 08:20:00,67.5,65.1,29.89,East,90,0.0,0.0,92,0.00,,---,0.00,VWS V14.00,2013-05-02 12:20:00,
2013-05-02 08:25:00,67.7,65.3,29.89,East,90,0.0,0.0,92,0.00,,---,0.00,VWS V14.00,2013-05-02 12:25:00,
2013-05-02 08:30:00,67.9,65.5,29.88,East,90,0.0,0.0,92,0.00,,---,0.00,VWS V14.00,2013-05-02 12:30:00,
2013-05-02 08:35:00,68.1,65.7,29.88,East,90,0.0,0.0,92,0.00,,---,0.00,VWS V14.00,2013-05-02 12:35:00,
2013-05-02 08:40:00,68.3,65.9,29.88,East,90,0.0,0.0,92,0.00,,---,0.00,VWS V14.00,2013-05-02 12:40:00,
2013-05-02 08:45:00,68.3,65.9,29.88,East,90,0.0,0.0,92,0.00,,---,0.00,VWS V14.00,2013-05-02 12:45:00,
2013-05-02 08:50:00,68.4,66.0,29.88,East,90,0.0,0.0,92,0.00,,---,0.00,VWS V14.00,2013-05-02 12:50:00,
2013-05-02 08:55:00,68.4,66.0,29.88,East,90,0.0,0.0,92,0.00,,---,0.00,VWS V14.00,2013-05-02 12:55:00,
2013-05-02 09:00:00,68.5,66.1,29.89,East,90,0.0,0.0,92,0.00,,---,0.00,VWS V14.00,2013-05-02 13:00:00,
2013-05-02 09:05:00,68.6,66.2,29.89,East,90,0.0,0.0,92,0.00,,---,0.00,VWS V14.00,2013-05-02 13:05:00,
2013-05-02 09:10:00,68.7,66.3,29.89,East,90,0.0,0.0,92,0.00,,---,0.00,VWS V14.00,2013-05-02 13:10:00,
2013-05-02 09:15:00,68.7,66.3,29.89,East,90,0.0,0.0,92,0.00,,---,0.00,VWS V14.00,2013-05-02 13:15:00,
2013-05-02 09:20:00,68.8,66.4,29.90,East,90,0.0,0.0,92,0.00,,---,0.00,VWS V14.00,2013-05-02 13:20:00,
2013-05-02 09:25:00,68.8,66.4,29.90,East,90,0.0,0.0,92,0.00,,---,0.00,VWS V14.00,2013-05-02 13:25:00,
2013-05-02 09:30:00,68.8,66.4,29.90,East,90,0.0,0.0,92,0.00,,---,0.00,VWS V14.00,2013-05-02 13:30:00,
2013-05-02 09:35:00,68.8,66.4,29.91,East,90,0.0,0.0,92,0.00,,---,0.00,VWS V14.00,2013-05-02 13:35:00,
2013-05-02 09:40:00,68.9,66.5,29.91,East,90,0.0,0.0,92,0.00,,---,0.01,VWS V14.00,2013-05-02 13:40:00,
2013-05-02 09:45:00,68.9,66.5,29.91,East,90,0.0,0.0,92,0.10,,---,0.02,VWS V14.00,2013-05-02 13:45:00,
2013-05-02 09:50:00,68.9,66.5,29.91,East,90,0.0,0.0,92,0.10,,---,0.02,VWS V14.00,2013-05-02 13:50:00,
2013-05-02 09:55:00,69.0,66.6,29.91,East,90,0.0,0.0,92,0.19,,---,0.04,VWS V14.00,2013-05-02 13:55:00,
2013-05-02 10:00:00,69.0,66.6,29.91,East,90,0.0,0.0,92,0.20,,---,0.05,VWS V14.00,2013-05-02 14:00:00,
2013-05-02 10:05:00,69.0,66.6,29.91,East,90,0.0,0.0,92,0.08,,---,0.05,VWS V14.00,2013-05-02 14:05:00,
2013-05-02 10:10:00,69.1,66.7,29.92,East,90,0.0,0.0,92,0.07,,---,0.06,VWS V14.00,2013-05-02 14:10:00,
2013-05-02 10:15:00,69.1,66.7,29.92,East,90,0.0,0.0,92,0.11,,---,0.07,VWS V14.00,2013-05-02 14:15:00,
2013-05-02 10:20:00,69.1,66.7,29.92,East,90,0.0,0.0,92,0.08,,---,0.08,VWS V14.00,2013-05-02 14:20:00,
2013-05-02 10:25:00,69.2,66.8,29.92,East,90,0.0,0.0,92,0.12,,---,0.09,VWS V14.00,2013-05-02 14:25:00,
2013-05-02 10:30:00,69.2,66.8,29.92,East,90,0.0,0.0,92,0.10,,---,0.10,VWS V14.00,2013-05-02 14:30:00,
2013-05-02 10:35:00,69.4,67.0,29.92,East,90,0.0,0.0,92,0.14,,---,0.11,VWS V14.00,2013-05-02 14:35:00,
2013-05-02 10:40:00,69.5,67.1,29.93,East,90,0.0,0.0,92,0.11,,---,0.11,VWS V14.00,2013-05-02 14:40:00,
2013-05-02 10:45:00,69.5,67.1,29.92,East,90,0.0,0.0,92,0.30,,---,0.13,VWS V14.00,2013-05-02 14:45:00,
2013-05-02 10:50:00,69.4,67.0,29.92,East,88,0.0,0.0,92,0.20,,---,0.14,VWS V14.00,2013-05-02 14:50:00,
2013-05-02 10:55:00,69.2,66.8,29.92,NE,39,2.0,2.0,92,0.14,,---,0.15,VWS V14.00,2013-05-02 14:55:00,
2013-05-02 11:00:00,68.9,66.2,29.92,NE,37,0.0,0.0,91,0.13,,---,0.16,VWS V14.00,2013-05-02 15:00:00,
2013-05-02 11:05:00,68.8,66.1,29.92,NE,37,0.0,0.0,91,0.09,,---,0.17,VWS V14.00,2013-05-02 15:05:00,
2013-05-02 11:10:00,68.8,66.1,29.91,NE,37,0.0,0.0,91,0.10,,---,0.18,VWS V14.00,2013-05-02 15:10:00,
2013-05-02 11:15:00,68.8,66.1,29.91,NE,37,0.0,0.0,91,0.17,,---,0.19,VWS V14.00,2013-05-02 15:15:00,
2013-05-02 11:20:00,68.7,66.0,29.91,NE,37,0.0,0.0,91,0.24,,---,0.21,VWS V14.00,2013-05-02 15:20:00,
2013-05-02 11:25:00,68.8,66.1,29.91,NE,37,0.0,0.0,91,0.15,,---,0.22,VWS V14.00,2013-05-02 15:25:00,
2013-05-02 11:30:00,68.8,66.1,29.90,NE,37,0.0,0.0,91,0.15,,---,0.24,VWS V14.00,2013-05-02 15:30:00,
2013-05-02 11:35:00,68.6,65.9,29.90,NE,37,0.0,0.0,91,0.10,,---,0.24,VWS V14.00,2013-05-02 15:35:00,
2013-05-02 11:40:00,68.6,65.9,29.90,NE,37,2.0,2.0,91,0.07,,---,0.25,VWS V14.00,2013-05-02 15:40:00,
2013-05-02 11:45:00,68.9,66.2,29.90,NE,37,0.0,0.0,91,0.07,,---,0.25,VWS V14.00,2013-05-02 15:45:00,
2013-05-02 11:50:00,68.9,66.2,29.89,NE,37,0.0,0.0,91,0.05,,---,0.25,VWS V14.00,2013-05-02 15:50:00,
2013-05-02 11:55:00,69.2,66.5,29.89,NE,37,0.0,0.0,91,0.00,,---,0.25,VWS V14.00,2013-05-02 15:55:00,
2013-05-02 12:00:00,69.3,66.6,29.89,NE,37,0.0,0.0,91,0.00,,---,0.25,VWS V14.00,2013-05-02 16:00:00,
2013-05-02 12:05:00,69.2,66.5,29.89,NE,37,0.0,0.0,91,0.00,,---,0.26,VWS V14.00,2013-05-02 16:05:00,
2013-05-02 12:10:00,69.2,66.2,29.88,NE,37,0.0,0.0,90,0.00,,---,0.26,VWS V14.00,2013-05-02 16:10:00,
2013-05-02 12:15:00,69.1,66.1,29.88,NE,37,0.0,0.0,90,0.00,,---,0.26,VWS V14.00,2013-05-02 16:15:00,
2013-05-02 12:20:00,69.0,65.9,29.88,NE,37,0.0,0.0,90,0.00,,---,0.26,VWS V14.00,2013-05-02 16:20:00,
2013-05-02 12:25:00,69.0,65.9,29.87,NE,37,0.0,0.0,90,0.00,,---,0.26,VWS V14.00,2013-05-02 16:25:00,
2013-05-02 12:30:00,69.0,65.9,29.87,NE,37,0.0,0.0,90,0.00,,---,0.26,VWS V14.00,2013-05-02 16:30:00,
2013-05-02 12:35:00,69.1,66.1,29.87,NE,37,0.0,0.0,90,0.00,,---,0.26,VWS V14.00,2013-05-02 16:35:00,
2013-05-02 12:40:00,69.3,66.2,29.87,NE,37,0.0,0.0,90,0.00,,---,0.26,VWS V14.00,2013-05-02 16:40:00,
2013-05-02 12:45:00,69.4,66.3,29.87,NE,37,0.0,0.0,90,0.00,,---,0.26,VWS V14.00,2013-05-02 16:45:00,
2013-05-02 12:50:00,69.5,66.4,29.87,NE,37,0.0,0.0,90,0.00,,---,0.26,VWS V14.00,2013-05-02 16:50:00,
2013-05-02 12:55:00,69.4,66.0,29.87,NE,37,0.0,0.0,89,0.00,,---,0.26,VWS V14.00,2013-05-02 16:55:00,
2013-05-02 13:00:00,69.4,66.0,29.87,NE,37,0.0,0.0,89,0.00,,---,0.26,VWS V14.00,2013-05-02 17:00:00,
2013-05-02 13:05:00,69.4,66.0,29.87,NE,37,1.0,1.0,89,0.00,,---,0.26,VWS V14.00,2013-05-02 17:05:00,
2013-05-02 13:10:00,69.5,66.1,29.87,NE,37,1.0,1.0,89,0.00,,---,0.26,VWS V14.00,2013-05-02 17:10:00,
2013-05-02 13:15:00,69.5,66.1,29.87,NE,37,0.0,0.0,89,0.00,,---,0.27,VWS V14.00,2013-05-02 17:15:00,
2013-05-02 13:20:00,69.3,65.9,29.87,NE,37,0.0,0.0,89,0.00,,---,0.27,VWS V14.00,2013-05-02 17:20:00,
2013-05-02 13:25:00,69.4,66.0,29.87,NE,37,0.0,0.0,89,0.00,,---,0.27,VWS V14.00,2013-05-02 17:25:00,
2013-05-02 13:30:00,69.4,66.0,29.87,NE,37,0.0,0.0,89,0.04,,---,0.28,VWS V14.00,2013-05-02 17:30:00,
2013-05-02 13:35:00,69.5,66.1,29.87,NE,37,0.0,0.0,89,0.04,,---,0.28,VWS V14.00,2013-05-02 17:35:00,
2013-05-02 13:40:00,69.5,66.1,29.87,NE,37,0.0,0.0,89,0.04,,---,0.28,VWS V14.00,2013-05-02 17:40:00,
2013-05-02 13:45:00,69.6,66.2,29.85,NE,37,0.0,0.0,89,0.04,,---,0.29,VWS V14.00,2013-05-02 17:45:00,
2013-05-02 13:50:00,69.6,66.2,29.85,NE,37,0.0,0.0,89,0.04,,---,0.29,VWS V14.00,2013-05-02 17:50:00,
2013-05-02 13:55:00,69.5,66.1,29.85,NE,37,0.0,0.0,89,0.04,,---,0.29,VWS V14.00,2013-05-02 17:55:00,
2013-05-02 14:00:00,69.7,66.6,29.85,NE,37,0.0,0.0,90,0.04,,---,0.29,VWS V14.00,2013-05-02 18:00:00,
2013-05-02 14:05:00,69.8,66.7,29.86,NE,37,0.0,0.0,90,0.00,,---,0.29,VWS V14.00,2013-05-02 18:05:00,
2013-05-02 14:10:00,69.7,66.3,29.86,NE,37,0.0,0.0,89,0.00,,---,0.29,VWS V14.00,2013-05-02 18:10:00,
2013-05-02 14:15:00,69.7,66.3,29.86,NE,37,0.0,0.0,89,0.00,,---,0.29,VWS V14.00,2013-05-02 18:15:00,
2013-05-02 14:20:00,69.9,66.5,29.86,NE,37,0.0,0.0,89,0.00,,---,0.29,VWS V14.00,2013-05-02 18:20:00,
2013-05-02 14:25:00,70.1,66.7,29.86,NE,37,0.0,1.0,89,0.00,,---,0.29,VWS V14.00,2013-05-02 18:25:00,
2013-05-02 14:30:00,70.3,66.9,29.87,NE,37,4.0,4.0,89,0.00,,---,0.29,VWS V14.00,2013-05-02 18:30:00,
2013-05-02 14:35:00,70.3,66.6,29.87,NE,37,2.0,2.0,88,0.00,,---,0.29,VWS V14.00,2013-05-02 18:35:00,
2013-05-02 14:40:00,70.4,66.7,29.87,SE,144,0.0,4.0,88,0.00,,---,0.29,VWS V14.00,2013-05-02 18:40:00,
2013-05-02 14:45:00,70.4,66.7,29.87,ESE,121,4.0,4.0,88,0.00,,---,0.29,VWS V14.00,2013-05-02 18:45:00,
2013-05-02 14:50:00,70.5,66.4,29.87,SE,131,4.0,4.0,87,0.00,,---,0.29,VWS V14.00,2013-05-02 18:50:00,
2013-05-02 14:55:00,70.6,66.9,29.87,ESE,120,0.0,0.0,88,0.00,,---,0.29,VWS V14.00,2013-05-02 18:55:00,
2013-05-02 15:00:00,70.6,66.9,29.87,ESE,119,0.0,0.0,88,0.00,,---,0.29,VWS V14.00,2013-05-02 19:00:00,
2013-05-02 15:05:00,70.5,66.1,29.87,ESE,119,0.0,0.0,86,0.00,,---,0.29,VWS V14.00,2013-05-02 19:05:00,
2013-05-02 15:10:00,70.4,65.7,29.87,ESE,119,0.0,0.0,85,0.00,,---,0.29,VWS V14.00,2013-05-02 19:10:00,
2013-05-02 15:15:00,70.3,65.6,29.87,ESE,119,0.0,0.0,85,0.00,,---,0.29,VWS V14.00,2013-05-02 19:15:00,
2013-05-02 15:20:00,70.3,65.9,29.86,ESE,119,0.0,0.0,86,0.00,,---,0.29,VWS V14.00,2013-05-02 19:20:00,
2013-05-02 15:25:00,70.3,65.9,29.86,ESE,119,0.0,0.0,86,0.00,,---,0.29,VWS V14.00,2013-05-02 19:25:00,
2013-05-02 15:30:00,70.5,66.4,29.85,ESE,119,0.0,0.0,87,0.00,,---,0.29,VWS V14.00,2013-05-02 19:30:00,
2013-05-02 15:35:00,70.7,66.7,29.85,ESE,119,0.0,0.0,87,0.00,,---,0.29,VWS V14.00,2013-05-02 19:35:00,
2013-05-02 15:40:00,70.7,66.0,29.84,ESE,119,0.0,0.0,85,0.00,,---,0.29,VWS V14.00,2013-05-02 19:40:00,
2013-05-02 15:45:00,70.7,66.0,29.84,ESE,119,0.0,0.0,85,0.00,,---,0.29,VWS V14.00,2013-05-02 19:45:00,
2013-05-02 15:50:00,70.7,66.0,29.83,ESE,119,0.0,0.0,85,0.00,,---,0.29,VWS V14.00,2013-05-02 19:50:00,
2013-05-02 15:55:00,70.7,66.0,29.83,ESE,119,0.0,0.0,85,0.00,,---,0.29,VWS V14.00,2013-05-02 19:55:00,
2013-05-02 16:00:00,70.7,65.6,29.82,ESE,118,0.0,0.0,84,0.00,,---,0.29,VWS V14.00,2013-05-02 20:00:00,
2013-05-02 16:05:00,70.6,65.5,29.83,ESE,118,0.0,0.0,84,0.00,,---,0.29,VWS V14.00,2013-05-02 20:05:00,
2013-05-02 16:10:00,70.4,65.0,29.84,ESE,118,0.0,0.0,83,0.00,,---,0.29,VWS V14.00,2013-05-02 20:10:00,
2013-05-02 16:15:00,70.2,65.1,29.84,ESE,118,0.0,0.0,84,0.00,,---,0.29,VWS V14.00,2013-05-02 20:15:00,
2013-05-02 16:20:00,70.2,65.5,29.83,ESE,118,0.0,0.0,85,0.00,,---,0.29,VWS V14.00,2013-05-02 20:20:00,
2013-05-02 16:25:00,70.2,65.5,29.83,ESE,118,0.0,0.0,85,0.00,,---,0.29,VWS V14.00,2013-05-02 20:25:00,
2013-05-02 16:30:00,70.2,65.5,29.83,ESE,118,0.0,0.0,85,0.00,,---,0.29,VWS V14.00,2013-05-02 20:30:00,
2013-05-02 16:35:00,70.3,65.6,29.83,ESE,118,0.0,0.0,85,0.00,,---,0.29,VWS V14.00,2013-05-02 20:35:00,
2013-05-02 16:40:00,70.4,65.7,29.83,SSE,167,0.0,0.0,85,0.00,,---,0.29,VWS V14.00,2013-05-02 20:40:00,
2013-05-02 16:45:00,70.4,65.7,29.83,SSE,167,0.0,0.0,85,0.00,,---,0.29,VWS V14.00,2013-05-02 20:45:00,
2013-05-02 16:50:00,70.3,65.2,29.83,SSE,167,0.0,0.0,84,0.00,,---,0.29,VWS V14.00,2013-05-02 20:50:00,
2013-05-02 16:55:00,70.3,65.2,29.83,SSE,167,0.0,0.0,84,0.00,,---,0.29,VWS V14.00,2013-05-02 20:55:00,
2013-05-02 17:00:00,70.4,65.3,29.82,SSE,161,1.0,3.0,84,0.00,,---,0.29,VWS V14.00,2013-05-02 21:00:00,
2013-05-02 17:05:00,70.5,65.4,29.81,East,92,4.0,5.0,84,0.00,,---,0.29,VWS V14.00,2013-05-02 21:05:00,
2013-05-02 17:10:00,70.6,65.9,29.81,East,90,0.0,5.0,85,0.00,,---,0.29,VWS V14.00,2013-05-02 21:10:00,
2013-05-02 17:15:00,70.6,65.9,29.80,East,90,0.0,0.0,85,0.00,,---,0.29,VWS V14.00,2013-05-02 21:15:00,
2013-05-02 17:20:00,70.6,65.9,29.81,East,90,0.0,0.0,85,0.00,,---,0.29,VWS V14.00,2013-05-02 21:20:00,
2013-05-02 17:25:00,70.7,66.3,29.81,East,90,0.0,0.0,86,0.00,,---,0.29,VWS V14.00,2013-05-02 21:25:00,
2013-05-02 17:30:00,70.7,66.3,29.81,East,90,0.0,0.0,86,0.00,,---,0.29,VWS V14.00,2013-05-02 21:30:00,
2013-05-02 17:35:00,70.8,66.4,29.81,East,90,0.0,0.0,86,0.00,,---,0.29,VWS V14.00,2013-05-02 21:35:00,
2013-05-02 17:40:00,71.0,66.9,29.80,East,90,0.0,0.0,87,0.00,,---,0.29,VWS V14.00,2013-05-02 21:40:00,
2013-05-02 17:45:00,71.1,66.7,29.80,East,90,0.0,0.0,86,0.00,,---,0.29,VWS V14.00,2013-05-02 21:45:00,
2013-05-02 17:50:00,71.1,66.7,29.80,East,90,0.0,0.0,86,0.00,,---,0.29,VWS V14.00,2013-05-02 21:50:00,
2013-05-02 17:55:00,71.2,66.8,29.80,East,90,0.0,0.0,86,0.00,,---,0.29,VWS V14.00,2013-05-02 21:55:00,
2013-05-02 18:00:00,71.2,66.5,29.80,East,90,0.0,0.0,85,0.00,,---,0.29,VWS V14.00,2013-05-02 22:00:00,
2013-05-02 18:05:00,71.3,66.9,29.79,East,90,0.0,0.0,86,0.00,,---,0.29,VWS V14.00,2013-05-02 22:05:00,
2013-05-02 18:10:00,71.4,67.0,29.79,East,99,0.0,0.0,86,0.00,,---,0.29,VWS V14.00,2013-05-02 22:10:00,
2013-05-02 18:15:00,71.6,66.9,29.79,East,97,4.0,5.0,85,0.00,,---,0.29,VWS V14.00,2013-05-02 22:15:00,
2013-05-02 18:20:00,72.0,66.9,29.79,East,96,0.0,0.0,84,0.00,,---,0.29,VWS V14.00,2013-05-02 22:20:00,
2013-05-02 18:25:00,72.4,66.6,29.79,East,96,0.0,0.0,82,0.00,,---,0.29,VWS V14.00,2013-05-02 22:25:00,
2013-05-02 18:30:00,72.8,66.6,29.80,East,96,0.0,0.0,81,0.00,,---,0.29,VWS V14.00,2013-05-02 22:30:00,
2013-05-02 18:35:00,73.3,67.5,29.80,East,96,0.0,2.0,82,0.00,,---,0.29,VWS V14.00,2013-05-02 22:35:00,
2013-05-02 18:40:00,73.6,67.4,29.79,East,86,0.0,0.0,81,0.00,,---,0.29,VWS V14.00,2013-05-02 22:40:00,
2013-05-02 18:45:00,73.7,67.2,29.79,ENE,71,4.0,7.0,80,0.00,,---,0.29,VWS V14.00,2013-05-02 22:45:00,
2013-05-02 18:50:00,73.7,67.5,29.80,ENE,67,7.0,7.0,81,0.00,,---,0.29,VWS V14.00,2013-05-02 22:50:00,
2013-05-02 18:55:00,73.5,67.3,29.80,ENE,59,5.0,6.0,81,0.00,,---,0.29,VWS V14.00,2013-05-02 22:55:00,
2013-05-02 19:00:00,73.2,65.9,29.80,ENE,74,5.0,7.0,78,0.00,,---,0.29,VWS V14.00,2013-05-02 23:00:00,
2013-05-02 19:05:00,72.8,64.4,29.80,East,79,8.0,10.0,75,0.00,,---,0.29,VWS V14.00,2013-05-02 23:05:00,
2013-05-02 19:10:00,72.2,63.8,29.80,East,85,0.0,0.0,75,0.00,,---,0.29,VWS V14.00,2013-05-02 23:10:00,
2013-05-02 19:15:00,71.9,64.3,29.80,ENE,67,5.0,8.0,77,0.00,,---,0.29,VWS V14.00,2013-05-02 23:15:00,
2013-05-02 19:20:00,71.6,64.0,29.81,East,88,0.0,0.0,77,0.00,,---,0.29,VWS V14.00,2013-05-02 23:20:00,
2013-05-02 19:25:00,71.3,63.7,29.81,East,79,0.0,0.0,77,0.00,,---,0.29,VWS V14.00,2013-05-02 23:25:00,
2013-05-02 19:30:00,71.0,63.8,29.81,East,82,0.0,0.0,78,0.00,,---,0.29,VWS V14.00,2013-05-02 23:30:00,
2013-05-02 19:35:00,70.5,63.7,29.81,East,82,0.0,0.0,79,0.00,,---,0.29,VWS V14.00,2013-05-02 23:35:00,
2013-05-02 19:40:00,70.2,64.1,29.81,ESE,119,1.0,4.0,81,0.00,,---,0.29,VWS V14.00,2013-05-02 23:40:00,
2013-05-02 19:45:00,69.9,64.2,29.81,East,98,0.0,0.0,82,0.00,,---,0.29,VWS V14.00,2013-05-02 23:45:00,
2013-05-02 19:50:00,69.6,63.9,29.81,East,98,0.0,0.0,82,0.00,,---,0.29,VWS V14.00,2013-05-02 23:50:00,
2013-05-02 19:55:00,69.3,63.6,29.81,East,96,1.0,5.0,82,0.00,,---,0.29,VWS V14.00,2013-05-02 23:55:00,
2013-05-02 20:00:00,69.0,63.6,29.81,East,96,0.0,0.0,83,0.00,,---,0.29,VWS V14.00,2013-05-03 00:00:00,
2013-05-02 20:05:00,68.8,63.4,29.81,East,96,0.0,0.0,83,0.00,,---,0.29,VWS V14.00,2013-05-03 00:05:00,
2013-05-02 20:10:00,68.6,63.6,29.81,East,96,0.0,0.0,84,0.00,,---,0.29,VWS V14.00,2013-05-03 00:10:00,
2013-05-02 20:15:00,68.4,63.4,29.81,East,96,0.0,0.0,84,0.00,,---,0.29,VWS V14.00,2013-05-03 00:15:00,
2013-05-02 20:20:00,68.2,63.5,29.82,East,96,0.0,0.0,85,0.00,,---,0.29,VWS V14.00,2013-05-03 00:20:00,
2013-05-02 20:25:00,68.1,63.4,29.82,East,96,0.0,0.0,85,0.00,,---,0.29,VWS V14.00,2013-05-03 00:25:00,
2013-05-02 20:30:00,67.9,63.2,29.82,East,96,0.0,0.0,85,0.00,,---,0.29,VWS V14.00,2013-05-03 00:30:00,
2013-05-02 20:35:00,67.8,63.5,29.82,East,96,0.0,0.0,86,0.00,,---,0.29,VWS V14.00,2013-05-03 00:35:00,
2013-05-02 20:40:00,67.8,63.8,29.82,East,96,1.0,4.0,87,0.00,,---,0.29,VWS V14.00,2013-05-03 00:40:00,
2013-05-02 20:45:00,67.9,63.9,29.82,East,96,0.0,0.0,87,0.00,,---,0.29,VWS V14.00,2013-05-03 00:45:00,
2013-05-02 20:50:00,68.1,64.1,29.82,East,92,0.0,4.0,87,0.00,,---,0.29,VWS V14.00,2013-05-03 00:50:00,
2013-05-02 20:55:00,68.3,64.3,29.82,East,97,0.0,5.0,87,0.00,,---,0.29,VWS V14.00,2013-05-03 00:55:00,
2013-05-02 21:00:00,68.5,64.2,29.82,East,80,8.0,8.0,86,0.00,,---,0.29,VWS V14.00,2013-05-03 01:00:00,
2013-05-02 21:05:00,68.6,64.2,29.82,East,82,0.0,0.0,86,0.00,,---,0.29,VWS V14.00,2013-05-03 01:05:00,
2013-05-02 21:10:00,68.8,64.4,29.82,East,81,0.0,0.0,86,0.00,,---,0.29,VWS V14.00,2013-05-03 01:10:00,
2013-05-02 21:15:00,68.8,64.4,29.82,East,88,2.0,7.0,86,0.00,,---,0.29,VWS V14.00,2013-05-03 01:15:00,
2013-05-02 21:20:00,68.8,64.1,29.83,East,90,0.0,0.0,85,0.00,,---,0.29,VWS V14.00,2013-05-03 01:20:00,
2013-05-02 21:25:00,68.8,64.4,29.83,East,90,0.0,0.0,86,0.00,,---,0.29,VWS V14.00,2013-05-03 01:25:00,
2013-05-02 21:30:00,68.7,64.3,29.82,East,90,0.0,0.0,86,0.00,,---,0.29,VWS V14.00,2013-05-03 01:30:00,
2013-05-02 21:35:00,68.7,64.3,29.83,East,90,0.0,0.0,86,0.00,,---,0.29,VWS V14.00,2013-05-03 01:35:00,
2013-05-02 21:40:00,68.6,64.2,29.83,East,90,0.0,0.0,86,0.00,,---,0.29,VWS V14.00,2013-05-03 01:40:00,
2013-05-02 21:45:00,68.5,64.2,29.83,East,90,0.0,0.0,86,0.00,,---,0.29,VWS V14.00,2013-05-03 01:45:00,
2013-05-02 21:50:00,68.3,64.0,29.83,East,90,0.0,0.0,86,0.00,,---,0.29,VWS V14.00,2013-05-03 01:50:00,
2013-05-02 21:55:00,68.1,63.8,29.83,East,90,0.0,0.0,86,0.00,,---,0.29,VWS V14.00,2013-05-03 01:55:00,
2013-05-02 22:00:00,68.0,63.7,29.83,East,90,0.0,0.0,86,0.00,,---,0.29,VWS V14.00,2013-05-03 02:00:00,
2013-05-02 22:05:00,67.7,63.4,29.83,East,90,0.0,0.0,86,0.00,,---,0.29,VWS V14.00,2013-05-03 02:05:00,
2013-05-02 22:10:00,67.6,63.3,29.83,East,90,0.0,0.0,86,0.00,,---,0.29,VWS V14.00,2013-05-03 02:10:00,
2013-05-02 22:15:00,67.4,63.4,29.83,East,90,0.0,0.0,87,0.00,,---,0.29,VWS V14.00,2013-05-03 02:15:00,
2013-05-02 22:20:00,67.2,63.2,29.83,East,90,0.0,0.0,87,0.00,,---,0.29,VWS V14.00,2013-05-03 02:20:00,
2013-05-02 22:25:00,67.1,63.1,29.84,East,90,0.0,0.0,87,0.00,,---,0.29,VWS V14.00,2013-05-03 02:25:00,
2013-05-02 22:30:00,67.0,63.0,29.84,East,90,0.0,0.0,87,0.00,,---,0.29,VWS V14.00,2013-05-03 02:30:00,
2013-05-02 22:35:00,66.8,62.8,29.84,East,90,0.0,0.0,87,0.00,,---,0.29,VWS V14.00,2013-05-03 02:35:00,
2013-05-02 22:40:00,66.6,62.6,29.84,East,90,0.0,0.0,87,0.00,,---,0.29,VWS V14.00,2013-05-03 02:40:00,
2013-05-02 22:45:00,66.4,62.4,29.84,East,90,0.0,0.0,87,0.00,,---,0.29,VWS V14.00,2013-05-03 02:45:00,
2013-05-02 22:50:00,66.3,62.3,29.84,East,90,0.0,0.0,87,0.00,,---,0.29,VWS V14.00,2013-05-03 02:50:00,
2013-05-02 22:55:00,66.2,62.5,29.84,East,90,0.0,0.0,88,0.00,,---,0.29,VWS V14.00,2013-05-03 02:55:00,
2013-05-02 23:00:00,66.1,62.5,29.84,East,90,0.0,0.0,88,0.00,,---,0.29,VWS V14.00,2013-05-03 03:00:00,
2013-05-02 23:05:00,66.1,62.5,29.84,East,90,0.0,0.0,88,0.00,,---,0.29,VWS V14.00,2013-05-03 03:05:00,
2013-05-02 23:10:00,66.0,62.3,29.84,East,90,0.0,0.0,88,0.00,,---,0.29,VWS V14.00,2013-05-03 03:10:00,
2013-05-02 23:15:00,65.9,62.6,29.84,East,90,0.0,0.0,89,0.00,,---,0.29,VWS V14.00,2013-05-03 03:15:00,
2013-05-02 23:20:00,65.8,62.2,29.84,East,90,0.0,0.0,88,0.00,,---,0.29,VWS V14.00,2013-05-03 03:20:00,
2013-05-02 23:25:00,65.8,62.2,29.84,East,90,0.0,0.0,88,0.00,,---,0.29,VWS V14.00,2013-05-03 03:25:00,
2013-05-02 23:30:00,65.7,62.4,29.84,East,90,0.0,0.0,89,0.00,,---,0.29,VWS V14.00,2013-05-03 03:30:00,
2013-05-02 23:35:00,65.6,62.3,29.83,East,90,0.0,0.0,89,0.00,,---,0.29,VWS V14.00,2013-05-03 03:35:00,
2013-05-02 23:40:00,65.4,62.1,29.83,East,90,0.0,0.0,89,0.00,,---,0.29,VWS V14.00,2013-05-03 03:40:00,
2013-05-02 23:45:00,65.3,61.7,29.83,East,90,0.0,0.0,88,0.00,,---,0.29,VWS V14.00,2013-05-03 03:45:00,
2013-05-02 23:50:00,65.2,61.9,29.83,East,90,0.0,0.0,89,0.00,,---,0.29,VWS V14.00,2013-05-03 03:50:00,
2013-05-02 23:55:00,65.1,61.8,29.83,East,90,0.0,0.0,89,0.00,,---,0.29,VWS V14.00,2013-05-03 03:55:00,